SLLP/LPB METAR and TAF weather

Enter ICAO airport designator
Station Type Date Time Source
SLLP METAR 2019/02/16 17:00 UTC NOAA

SLLP 161700Z 30004KT 9999 SCT015 FEW017CB BKN070 13/05 Q1038


Station Type Date Time Source
SLLP Decoded METAR 2019/02/16 17:00 UTC NOAA

La Paz / Alto, Bolivia (SLLP) 16-31S 068-11W 4038M
Feb 16, 2019 - 12:00 PM EST / 2019.02.16 1700 UTC
Wind: from the WNW (300 degrees) at 5 MPH (4 KT):0
Visibility: greater than 7 mile(s):0
Sky conditions: mostly cloudy
Weather: Cumulonimbus clouds observed
Temperature: 55 F (13 C)
Dew Point: 41 F (5 C)
Relative Humidity: 58%
Pressure (altimeter): 30.65 in. Hg (1038 hPa)
ob: SLLP 161700Z 30004KT 9999 SCT015 FEW017CB BKN070 13/05 Q1038
cycle: 17

Station Type Date Time Source
SLLP TAF 2019/02/16 18:54 UTC NOAA

TAF TAF SLLP 161600Z 1618/1718 30010KT 8000 VCTSSH SCT015 FEW017CB BKN070 TX15/1620Z TN04/1710Z
TEMPO 1619/1621 6000 TSRA
TEMPO 1623/1701 6000 TSRA
BECMG 1701/1703 07006KT 3000E VCFG SCT010 BKN070
BECMG 1712/1714 9999 NSW SCT015 SCT070


Example: see airport list